createdAt,value
2022-08-17T00:00:44.113Z,65.2
2022-08-17T00:05:17.812Z,65.1
2022-08-17T00:10:17.757Z,65.3
2022-08-17T00:15:18.040Z,65.2
2022-08-17T00:20:18.489Z,65.1
2022-08-17T00:25:17.944Z,65.0
2022-08-17T00:30:17.918Z,65.2
2022-08-17T00:35:17.916Z,65.3
2022-08-17T00:40:17.839Z,65.2
2022-08-17T00:45:17.948Z,65.1
2022-08-17T00:50:17.924Z,64.9
2022-08-17T00:55:18.021Z,64.8
2022-08-17T01:00:17.886Z,64.7
2022-08-17T01:05:18.609Z,64.7
2022-08-17T01:10:59.503Z,64.7
2022-08-17T01:15:18.120Z,64.8
2022-08-17T01:20:18.015Z,64.8
2022-08-17T01:25:17.947Z,64.7
2022-08-17T01:30:58.930Z,64.8
2022-08-17T01:35:18.833Z,64.7
2022-08-17T01:40:18.020Z,64.7
2022-08-17T01:45:18.229Z,64.8
2022-08-17T01:50:18.100Z,64.9
2022-08-17T01:55:17.995Z,64.9
2022-08-17T02:00:18.055Z,65.0
2022-08-17T02:05:18.123Z,65.0
2022-08-17T02:10:20.299Z,64.9
2022-08-17T02:15:18.170Z,65.0
2022-08-17T02:20:42.244Z,65.0
2022-08-17T02:25:18.088Z,64.9
2022-08-17T02:31:00.790Z,64.9
2022-08-17T02:35:19.968Z,64.9
2022-08-17T02:40:18.524Z,64.8
2022-08-17T02:45:18.454Z,64.8
2022-08-17T02:50:18.098Z,64.7
2022-08-17T02:55:18.147Z,64.7
2022-08-17T03:00:18.135Z,64.6
2022-08-17T03:05:16.357Z,64.6
2022-08-17T03:10:16.170Z,64.6
2022-08-17T03:15:16.433Z,64.6
2022-08-17T03:20:16.100Z,64.5
2022-08-17T03:25:16.188Z,64.2
2022-08-17T03:30:16.276Z,64.2
2022-08-17T03:35:16.448Z,64.0
2022-08-17T03:40:16.167Z,63.9
2022-08-17T03:45:16.537Z,63.6
2022-08-17T03:50:16.567Z,63.7
2022-08-17T03:55:16.288Z,63.4
2022-08-17T04:00:17.401Z,63.5
2022-08-17T04:05:17.368Z,63.6
2022-08-17T04:10:17.265Z,63.3
2022-08-17T04:15:17.364Z,63.4
2022-08-17T04:20:17.655Z,63.5
2022-08-17T04:25:17.376Z,63.2
2022-08-17T04:30:17.352Z,63.2
2022-08-17T04:35:17.308Z,63.6
2022-08-17T04:40:17.391Z,63.3
2022-08-17T04:45:17.728Z,63.3
2022-08-17T04:50:17.447Z,63.3
2022-08-17T04:55:17.794Z,63.3
2022-08-17T05:00:17.583Z,63.4
2022-08-17T05:05:17.505Z,63.2
2022-08-17T05:10:17.321Z,63.0
2022-08-17T05:15:17.714Z,63.4
2022-08-17T05:20:17.341Z,63.3
2022-08-17T05:25:17.487Z,63.3
2022-08-17T05:30:17.715Z,63.3
2022-08-17T05:35:17.523Z,63.7
2022-08-17T05:40:17.451Z,63.6
2022-08-17T05:45:28.108Z,63.6
2022-08-17T05:50:18.107Z,63.6
2022-08-17T05:55:17.704Z,64.0
2022-08-17T06:00:20.136Z,64.0
2022-08-17T06:05:17.652Z,63.9
2022-08-17T06:10:17.650Z,63.9
2022-08-17T06:15:17.656Z,63.8
2022-08-17T06:20:18.262Z,63.4
2022-08-17T06:25:17.536Z,63.5
2022-08-17T06:30:17.727Z,63.6
2022-08-17T06:35:17.606Z,64.0
2022-08-17T06:40:17.635Z,64.0
2022-08-17T06:45:17.800Z,63.9
2022-08-17T06:50:17.536Z,63.9
2022-08-17T06:55:18.906Z,63.9
2022-08-17T07:00:17.647Z,63.9
2022-08-17T07:05:17.755Z,64.0
2022-08-17T07:10:17.662Z,64.2
2022-08-17T07:15:17.914Z,64.1
2022-08-17T07:20:17.939Z,64.0
2022-08-17T07:25:17.683Z,64.2
2022-08-17T07:30:17.710Z,64.3
2022-08-17T07:35:17.652Z,64.4
2022-08-17T07:40:19.563Z,64.4
2022-08-17T07:45:18.393Z,64.4
2022-08-17T07:50:21.540Z,64.4
2022-08-17T07:55:17.816Z,64.5
2022-08-17T08:00:18.111Z,64.5
2022-08-17T08:05:30.008Z,64.4
2022-08-17T08:10:17.688Z,64.2
2022-08-17T08:15:17.926Z,64.1
2022-08-17T08:20:37.581Z,64.0
2022-08-17T08:25:18.089Z,64.0
2022-08-17T08:30:17.909Z,64.0
2022-08-17T08:35:17.886Z,64.0
2022-08-17T08:40:17.742Z,63.9
2022-08-17T08:45:17.920Z,63.9
2022-08-17T08:50:30.277Z,63.9
2022-08-17T08:55:18.043Z,63.9
2022-08-17T09:00:18.044Z,63.9
2022-08-17T09:05:18.100Z,63.9
2022-08-17T09:10:17.955Z,63.9
2022-08-17T09:15:17.954Z,63.9
2022-08-17T09:20:27.539Z,63.9
2022-08-17T09:25:18.165Z,63.8
2022-08-17T09:30:18.135Z,63.9
2022-08-17T09:35:18.060Z,63.6
2022-08-17T09:40:18.030Z,63.6
2022-08-17T09:45:18.107Z,63.6
2022-08-17T09:50:17.929Z,63.6
2022-08-17T09:55:18.055Z,63.6
2022-08-17T10:00:17.959Z,63.4
2022-08-17T10:05:18.251Z,63.5
2022-08-17T10:10:18.028Z,63.8
2022-08-17T10:15:18.538Z,63.9
2022-08-17T10:20:18.005Z,64.0
2022-08-17T10:25:22.115Z,63.9
2022-08-17T10:30:17.996Z,64.0
2022-08-17T10:35:18.077Z,64.0
2022-08-17T10:40:18.303Z,63.4
2022-08-17T10:45:18.365Z,63.4
2022-08-17T10:50:18.287Z,63.6
2022-08-17T10:55:18.279Z,63.6
2022-08-17T11:00:18.010Z,63.6
2022-08-17T11:05:18.300Z,64.0
2022-08-17T11:10:18.060Z,63.9
2022-08-17T11:15:18.413Z,63.8
2022-08-17T11:20:18.229Z,63.4
2022-08-17T11:25:18.185Z,63.1
2022-08-17T11:30:16.357Z,63.4
2022-08-17T11:35:16.270Z,63.8
2022-08-17T11:40:16.227Z,63.7
2022-08-17T11:45:19.414Z,63.8
2022-08-17T11:50:16.444Z,63.6
2022-08-17T11:55:34.383Z,63.7
2022-08-17T12:00:16.271Z,63.7
2022-08-17T12:05:17.082Z,63.6
2022-08-17T12:10:16.179Z,63.8
2022-08-17T12:15:16.432Z,63.4
2022-08-17T12:20:16.414Z,63.4
2022-08-17T12:25:16.646Z,63.4
2022-08-17T12:30:16.282Z,63.5
2022-08-17T12:35:16.275Z,63.5
2022-08-17T12:40:16.241Z,63.5
2022-08-17T12:45:16.615Z,63.6
2022-08-17T12:50:28.833Z,63.6
2022-08-17T12:55:16.428Z,63.5
2022-08-17T13:00:16.582Z,63.5
2022-08-17T13:05:16.538Z,63.6
2022-08-17T13:10:16.455Z,63.7
2022-08-17T13:15:16.523Z,64.2
2022-08-17T13:20:16.316Z,63.9
2022-08-17T13:25:16.386Z,64.1
2022-08-17T13:30:16.385Z,63.8
2022-08-17T13:35:29.459Z,64.0
2022-08-17T13:40:16.433Z,64.0
2022-08-17T13:45:34.874Z,64.0
2022-08-17T13:50:16.363Z,64.2
2022-08-17T13:55:16.572Z,64.3
2022-08-17T14:00:16.728Z,64.0
2022-08-17T14:05:16.675Z,64.3
2022-08-17T14:10:16.667Z,64.2
2022-08-17T14:15:16.675Z,64.2
2022-08-17T14:20:16.398Z,64.2
2022-08-17T14:25:16.547Z,64.2
2022-08-17T14:30:16.475Z,64.0
2022-08-17T14:35:16.447Z,64.1
2022-08-17T14:40:16.723Z,63.8
2022-08-17T14:45:30.315Z,63.7
2022-08-17T14:50:19.451Z,63.5
2022-08-17T14:55:16.646Z,63.5
2022-08-17T15:00:16.641Z,63.0
2022-08-17T15:05:16.765Z,62.5
2022-08-17T15:10:16.547Z,63.0
2022-08-17T15:15:17.004Z,62.7
2022-08-17T15:20:16.761Z,62.6
2022-08-17T15:25:16.718Z,62.8
2022-08-17T15:30:17.522Z,63.0
2022-08-17T15:35:16.708Z,62.6
2022-08-17T15:40:16.901Z,62.4
2022-08-17T15:45:17.031Z,62.3
2022-08-17T15:50:16.682Z,62.3
2022-08-17T15:55:20.792Z,62.2
2022-08-17T16:00:16.724Z,62.2
2022-08-17T16:05:17.540Z,61.6
2022-08-17T16:10:19.045Z,62.0
2022-08-17T16:15:16.754Z,62.0
2022-08-17T16:20:20.609Z,61.7
2022-08-17T16:25:16.873Z,61.4
2022-08-17T16:30:18.015Z,61.4
2022-08-17T16:35:16.926Z,60.9
2022-08-17T16:40:17.005Z,61.5
2022-08-17T16:45:16.952Z,61.9
2022-08-17T16:50:16.796Z,61.5
2022-08-17T16:55:16.871Z,62.0
2022-08-17T17:00:16.869Z,61.7
2022-08-17T17:05:17.159Z,61.7
2022-08-17T17:10:16.815Z,61.7
2022-08-17T17:15:21.861Z,61.6
2022-08-17T17:20:16.837Z,61.2
2022-08-17T17:25:17.016Z,61.5
2022-08-17T17:30:17.022Z,61.5
2022-08-17T17:35:16.872Z,62.0
2022-08-17T17:40:17.221Z,61.7
2022-08-17T17:45:17.372Z,62.1
2022-08-17T17:50:16.856Z,61.9
2022-08-17T17:55:16.929Z,62.1
2022-08-17T18:00:17.011Z,62.1
2022-08-17T18:05:17.615Z,61.7
2022-08-17T18:10:29.297Z,62.1
2022-08-17T18:15:17.476Z,62.2
2022-08-17T18:20:16.942Z,62.1
2022-08-17T18:25:17.030Z,61.7
2022-08-17T18:30:16.964Z,61.2
2022-08-17T18:35:17.078Z,61.7
2022-08-17T18:40:17.113Z,60.6
2022-08-17T18:45:17.261Z,61.0
2022-08-17T18:50:17.206Z,61.2
2022-08-17T18:55:17.281Z,61.2
2022-08-17T19:00:17.294Z,61.2
2022-08-17T19:05:17.282Z,61.1
2022-08-17T19:10:16.981Z,61.1
2022-08-17T19:15:17.173Z,60.8
2022-08-17T19:20:17.089Z,60.7
2022-08-17T19:25:17.334Z,60.7
2022-08-17T19:30:17.267Z,61.2
2022-08-17T19:35:17.772Z,61.2
2022-08-17T19:40:41.825Z,61.0
2022-08-17T19:45:17.289Z,60.8
2022-08-17T19:50:17.136Z,60.7
2022-08-17T19:55:20.538Z,60.9
2022-08-17T20:00:17.329Z,61.5
2022-08-17T20:05:17.514Z,61.5
2022-08-17T20:10:17.362Z,61.4
2022-08-17T20:15:17.840Z,61.0
2022-08-17T20:20:19.786Z,61.0
2022-08-17T20:25:17.280Z,60.6
2022-08-17T20:30:17.206Z,59.9
2022-08-17T20:35:17.513Z,60.1
2022-08-17T20:40:17.282Z,59.9
2022-08-17T20:45:17.323Z,60.0
2022-08-17T20:50:17.266Z,59.8
2022-08-17T20:55:17.623Z,60.3
2022-08-17T21:00:17.335Z,60.3
2022-08-17T21:05:17.332Z,60.0
2022-08-17T21:10:17.514Z,60.1
2022-08-17T21:15:17.576Z,60.6
2022-08-17T21:20:17.468Z,60.4
2022-08-17T21:25:17.584Z,60.3
2022-08-17T21:30:17.625Z,60.7
2022-08-17T21:35:17.420Z,60.6
2022-08-17T21:40:17.507Z,60.0
2022-08-17T21:45:17.658Z,59.9
2022-08-17T21:50:17.405Z,60.8
2022-08-17T21:55:17.356Z,60.8
2022-08-17T22:00:17.507Z,60.4
2022-08-17T22:05:17.598Z,60.9
2022-08-17T22:10:17.424Z,60.9
2022-08-17T22:15:17.420Z,60.8
2022-08-17T22:20:17.642Z,60.9
2022-08-17T22:25:17.611Z,60.9
2022-08-17T22:30:17.480Z,60.6
2022-08-17T22:35:17.448Z,60.9
2022-08-17T22:40:17.589Z,60.8
2022-08-17T22:45:17.814Z,60.8
2022-08-17T22:50:17.416Z,60.8
2022-08-17T22:55:17.726Z,60.7
2022-08-17T23:00:17.482Z,60.5
2022-08-17T23:05:17.621Z,60.2
2022-08-17T23:10:17.525Z,60.2
2022-08-17T23:15:17.994Z,60.3
2022-08-17T23:20:17.651Z,60.4
2022-08-17T23:25:18.152Z,60.2
2022-08-17T23:30:17.622Z,59.8
2022-08-17T23:35:17.730Z,59.7
2022-08-17T23:40:17.581Z,60.6
2022-08-17T23:45:17.857Z,60.1
2022-08-17T23:50:17.694Z,60.2
2022-08-17T23:55:17.645Z,60.5
